createdAt,value
2022-10-11T00:01:02.345Z,102313.22
2022-10-11T00:03:30.553Z,102314.94
2022-10-11T00:05:58.729Z,102322.78
2022-10-11T00:08:27.240Z,102323.75
2022-10-11T00:11:00.302Z,102329.81
2022-10-11T00:13:29.651Z,102335.81
2022-10-11T00:15:58.714Z,102339.25
2022-10-11T00:18:28.412Z,102335.66
2022-10-11T00:21:04.039Z,102333.03
2022-10-11T00:23:32.957Z,102335.59
2022-10-11T00:26:03.126Z,102338.22
2022-10-11T00:28:32.076Z,102338.13
2022-10-11T00:31:00.258Z,102340.69
2022-10-11T00:33:29.890Z,102342.38
2022-10-11T00:36:00.285Z,102345.00
2022-10-11T00:38:28.478Z,102337.03
2022-10-11T00:40:56.641Z,102350.94
2022-10-11T00:43:27.491Z,102346.59
2022-10-11T00:46:29.845Z,102345.53
2022-10-11T00:49:05.077Z,102344.59
2022-10-11T00:51:44.451Z,102349.78
2022-10-11T00:54:18.496Z,102346.16
2022-10-11T00:56:50.930Z,102346.13
2022-10-11T00:59:24.159Z,102352.16
2022-10-11T01:01:52.656Z,102359.13
2022-10-11T01:04:22.279Z,102359.91
2022-10-11T01:06:51.900Z,102365.84
2022-10-11T01:09:21.517Z,102364.03
2022-10-11T01:11:51.436Z,102368.34
2022-10-11T01:14:55.122Z,102362.97
2022-10-11T01:17:33.243Z,102365.50
2022-10-11T01:20:35.493Z,102367.09
2022-10-11T01:23:46.050Z,102363.34
2022-10-11T01:26:42.927Z,102366.75
2022-10-11T01:29:19.701Z,102364.97
2022-10-11T01:31:56.597Z,102367.50
2022-10-11T01:34:32.219Z,102365.75
2022-10-11T01:37:05.696Z,102376.19
2022-10-11T01:39:40.787Z,102369.16
2022-10-11T01:42:12.941Z,102383.06
2022-10-11T01:44:43.729Z,102383.88
2022-10-11T01:47:14.084Z,102384.72
2022-10-11T01:49:42.766Z,102381.06
2022-10-11T01:52:13.397Z,102387.97
2022-10-11T01:55:09.306Z,102387.94
2022-10-11T01:57:53.058Z,102386.03
2022-10-11T02:00:24.016Z,102391.25
2022-10-11T02:03:16.067Z,102398.13
2022-10-11T02:05:49.994Z,102394.56
2022-10-11T02:08:26.683Z,102404.88
2022-10-11T02:11:02.070Z,102398.72
2022-10-11T02:13:35.416Z,102397.75
2022-10-11T02:16:09.870Z,102401.25
2022-10-11T02:18:45.190Z,102402.97
2022-10-11T02:21:17.993Z,102398.56
2022-10-11T02:23:51.099Z,102399.41
2022-10-11T02:26:21.969Z,102400.19
2022-10-11T02:28:51.955Z,102402.72
2022-10-11T02:31:21.680Z,102399.22
2022-10-11T02:33:57.990Z,102405.25
2022-10-11T02:36:33.507Z,102408.63
2022-10-11T02:39:08.989Z,102412.88
2022-10-11T02:41:40.901Z,102413.81
2022-10-11T02:44:14.113Z,102411.19
2022-10-11T02:46:44.149Z,102419.03
2022-10-11T02:49:14.990Z,102420.72
2022-10-11T02:51:43.520Z,102421.63
2022-10-11T02:54:11.723Z,102419.06
2022-10-11T02:56:39.876Z,102412.09
2022-10-11T02:59:08.006Z,102418.09
2022-10-11T03:01:36.239Z,102418.94
2022-10-11T03:04:04.481Z,102416.34
2022-10-11T03:06:34.091Z,102414.53
2022-10-11T03:09:02.302Z,102421.44
2022-10-11T03:11:30.443Z,102419.66
2022-10-11T03:13:58.548Z,102421.28
2022-10-11T03:16:26.685Z,102425.56
2022-10-11T03:18:54.820Z,102422.06
2022-10-11T03:21:25.081Z,102421.94
2022-10-11T03:23:54.625Z,102422.84
2022-10-11T03:26:23.386Z,102430.59
2022-10-11T03:28:51.620Z,102431.47
2022-10-11T03:31:20.637Z,102426.13
2022-10-11T03:33:49.159Z,102433.97
2022-10-11T03:36:17.423Z,102425.19
2022-10-11T03:38:45.538Z,102437.41
2022-10-11T03:41:15.141Z,102439.06
2022-10-11T03:43:43.257Z,102439.81
2022-10-11T03:46:11.410Z,102439.75
2022-10-11T03:48:40.083Z,102444.00
2022-10-11T03:51:08.252Z,102436.06
2022-10-11T03:53:38.030Z,102445.47
2022-10-11T03:56:08.703Z,102449.78
2022-10-11T03:58:38.551Z,102442.66
2022-10-11T04:01:06.647Z,102446.78
2022-10-11T04:03:35.247Z,102453.56
2022-10-11T04:06:03.826Z,102453.38
2022-10-11T04:08:32.229Z,102455.88
2022-10-11T04:11:00.422Z,102454.22
2022-10-11T04:13:28.599Z,102458.66
2022-10-11T04:15:58.110Z,102457.91
2022-10-11T04:18:26.276Z,102458.75
2022-10-11T04:20:54.431Z,102463.00
2022-10-11T04:23:22.742Z,102466.47
2022-10-11T04:25:50.963Z,102475.06
2022-10-11T04:28:19.238Z,102476.03
2022-10-11T04:30:48.604Z,102486.50
2022-10-11T04:33:18.141Z,102485.59
2022-10-11T04:35:46.238Z,102482.19
2022-10-11T04:38:14.444Z,102490.81
2022-10-11T04:40:42.553Z,102486.44
2022-10-11T04:43:10.679Z,102490.69
2022-10-11T04:45:38.782Z,102487.13
2022-10-11T04:48:07.994Z,102492.34
2022-10-11T04:50:37.633Z,102493.16
2022-10-11T04:53:05.761Z,102489.56
2022-10-11T04:55:34.158Z,102486.97
2022-10-11T04:58:02.311Z,102488.91
2022-10-11T05:00:30.768Z,102491.66
2022-10-11T05:02:58.916Z,102494.25
2022-10-11T05:05:27.010Z,102505.56
2022-10-11T05:07:56.630Z,102500.34
2022-10-11T05:10:24.697Z,102502.13
2022-10-11T05:12:52.931Z,102500.34
2022-10-11T05:15:21.018Z,102504.69
2022-10-11T05:17:49.222Z,102503.03
2022-10-11T05:20:17.610Z,102513.72
2022-10-11T05:22:45.806Z,102516.28
2022-10-11T05:25:15.353Z,102515.34
2022-10-11T05:27:43.513Z,102512.56
2022-10-11T05:30:12.803Z,102521.28
2022-10-11T05:32:41.033Z,102519.41
2022-10-11T05:35:10.383Z,102522.09
2022-10-11T05:37:38.514Z,102525.53
2022-10-11T05:40:08.493Z,102531.56
2022-10-11T05:42:38.002Z,102528.94
2022-10-11T05:45:08.009Z,102528.94
2022-10-11T05:47:36.109Z,102538.56
2022-10-11T05:50:04.399Z,102544.66
2022-10-11T05:52:32.544Z,102548.03
2022-10-11T05:55:00.684Z,102541.00
2022-10-11T05:57:28.811Z,102549.00
2022-10-11T05:59:58.283Z,102556.03
2022-10-11T06:02:26.449Z,102554.31
2022-10-11T06:04:54.596Z,102550.75
2022-10-11T06:07:23.145Z,102557.78
2022-10-11T06:09:52.190Z,102560.38
2022-10-11T06:12:21.665Z,102562.13
2022-10-11T06:14:49.838Z,102562.13
2022-10-11T06:17:19.328Z,102564.81
2022-10-11T06:19:47.443Z,102562.25
2022-10-11T06:22:15.564Z,102569.31
2022-10-11T06:24:43.686Z,102569.41
2022-10-11T06:27:12.057Z,102569.56
2022-10-11T06:29:40.200Z,102578.31
2022-10-11T06:32:08.355Z,102584.50
2022-10-11T06:34:37.905Z,102576.66
2022-10-11T06:37:06.093Z,102582.84
2022-10-11T06:39:34.447Z,102583.81
2022-10-11T06:42:02.912Z,102589.16
2022-10-11T06:44:31.299Z,102585.84
2022-10-11T06:46:59.454Z,102589.59
2022-10-11T06:49:27.620Z,102589.84
2022-10-11T06:51:57.055Z,102595.31
2022-10-11T06:54:25.576Z,102599.09
2022-10-11T06:56:53.729Z,102597.75
2022-10-11T06:59:22.097Z,102599.94
2022-10-11T07:01:50.259Z,102605.63
2022-10-11T07:04:18.401Z,102602.50
2022-10-11T07:06:46.481Z,102615.13
2022-10-11T07:09:16.000Z,102609.38
2022-10-11T07:11:44.288Z,102610.66
2022-10-11T07:14:12.463Z,102610.13
2022-10-11T07:16:40.598Z,102615.69
2022-10-11T07:19:08.862Z,102614.53
2022-10-11T07:21:37.550Z,102621.97
2022-10-11T07:24:06.715Z,102618.94
2022-10-11T07:26:38.838Z,102624.66
2022-10-11T07:29:08.934Z,102631.19
2022-10-11T07:31:39.994Z,102633.41
2022-10-11T07:34:08.278Z,102627.69
2022-10-11T07:36:37.201Z,102629.78
2022-10-11T07:39:07.135Z,102632.78
2022-10-11T07:41:43.116Z,102636.59
2022-10-11T07:44:13.987Z,102634.38
2022-10-11T07:46:42.116Z,102641.63
2022-10-11T07:49:10.274Z,102640.19
2022-10-11T07:51:38.430Z,102642.25
2022-10-11T07:54:07.567Z,102633.81
2022-10-11T07:56:39.979Z,102641.03
2022-10-11T07:59:08.255Z,102640.41
2022-10-11T08:01:36.415Z,102640.59
2022-10-11T08:04:04.734Z,102639.94
2022-10-11T08:06:33.337Z,102641.97
2022-10-11T08:09:02.950Z,102643.06
2022-10-11T08:11:34.267Z,102644.25
2022-10-11T08:14:08.475Z,102649.75
2022-10-11T08:16:36.898Z,102643.00
2022-10-11T08:19:05.628Z,102647.69
2022-10-11T08:21:33.938Z,102655.03
2022-10-11T08:24:04.195Z,102646.56
2022-10-11T08:26:33.017Z,102653.97
2022-10-11T08:29:03.958Z,102658.59
2022-10-11T08:31:33.462Z,102660.63
2022-10-11T08:34:02.699Z,102651.34
2022-10-11T08:36:31.018Z,102658.59
2022-10-11T08:38:59.364Z,102657.16
2022-10-11T08:41:32.986Z,102660.09
2022-10-11T08:44:21.757Z,102667.31
2022-10-11T08:46:59.532Z,102672.03
2022-10-11T08:49:32.580Z,102666.28
2022-10-11T08:52:05.778Z,102670.91
2022-10-11T08:54:45.722Z,102677.38
2022-10-11T08:57:17.594Z,102671.50
2022-10-11T08:59:51.164Z,102670.03
2022-10-11T09:03:03.121Z,102677.28
2022-10-11T09:05:29.182Z,102682.78
2022-10-11T09:08:09.461Z,102677.78
2022-10-11T09:10:56.478Z,102686.81
2022-10-11T09:13:52.574Z,102687.06
2022-10-11T09:16:31.846Z,102685.56
2022-10-11T09:19:25.273Z,102684.03
2022-10-11T09:22:05.759Z,102684.25
2022-10-11T09:25:01.561Z,102682.72
2022-10-11T09:28:01.223Z,102676.75
2022-10-11T09:30:25.361Z,102683.16
2022-10-11T09:33:10.992Z,102690.34
2022-10-11T09:35:44.281Z,102688.78
2022-10-11T09:38:29.246Z,102690.66
2022-10-11T09:41:10.847Z,102688.09
2022-10-11T09:43:39.345Z,102691.81
2022-10-11T09:46:20.976Z,102690.19
2022-10-11T09:48:51.930Z,102694.69
2022-10-11T09:51:23.557Z,102694.88
2022-10-11T09:54:00.684Z,102696.78
2022-10-11T09:56:31.607Z,102701.34
2022-10-11T09:59:28.430Z,102697.97
2022-10-11T10:02:24.235Z,102699.03
2022-10-11T10:05:05.709Z,102700.91
2022-10-11T10:07:36.147Z,102705.41
2022-10-11T10:10:31.203Z,102701.13
2022-10-11T10:13:02.818Z,102699.50
2022-10-11T10:15:33.340Z,102701.34
2022-10-11T10:18:02.088Z,102711.19
2022-10-11T10:20:35.314Z,102701.59
2022-10-11T10:23:10.580Z,102700.81
2022-10-11T10:25:43.486Z,102704.38
2022-10-11T10:28:22.520Z,102701.84
2022-10-11T10:30:55.833Z,102705.47
2022-10-11T10:33:26.371Z,102701.13
2022-10-11T10:36:02.423Z,102698.50
2022-10-11T10:38:37.380Z,102700.34
2022-10-11T10:41:10.692Z,102703.94
2022-10-11T10:43:41.508Z,102704.88
2022-10-11T10:46:23.636Z,102707.63
2022-10-11T10:49:28.681Z,102713.00
2022-10-11T10:52:05.910Z,102701.59
2022-10-11T10:54:42.003Z,102700.88
2022-10-11T10:57:20.878Z,102704.56
2022-10-11T11:00:11.472Z,102701.19
2022-10-11T11:02:50.066Z,102704.00
2022-10-11T11:05:32.139Z,102706.81
2022-10-11T11:08:14.718Z,102710.47
2022-10-11T11:10:50.855Z,102706.13
2022-10-11T11:13:30.777Z,102715.84
2022-10-11T11:16:12.509Z,102710.50
2022-10-11T11:18:52.526Z,102713.94
2022-10-11T11:21:34.992Z,102700.56
2022-10-11T11:24:19.907Z,102703.97
2022-10-11T11:26:55.747Z,102699.47
2022-10-11T11:29:49.827Z,102692.31
2022-10-11T11:32:30.059Z,102694.06
2022-10-11T11:35:03.696Z,102687.94
2022-10-11T11:37:36.109Z,102683.63
2022-10-11T11:40:15.711Z,102677.63
2022-10-11T11:42:49.445Z,102688.31
2022-10-11T11:45:23.248Z,102684.84
2022-10-11T11:47:57.192Z,102680.53
2022-10-11T11:50:28.642Z,102679.75
2022-10-11T11:53:04.232Z,102674.53
2022-10-11T11:55:44.932Z,102670.16
2022-10-11T11:58:28.937Z,102668.41
2022-10-11T12:01:08.515Z,102665.75
2022-10-11T12:03:42.712Z,102667.47
2022-10-11T12:06:27.703Z,102668.31
2022-10-11T12:09:09.566Z,102670.03
2022-10-11T12:11:49.697Z,102655.88
2022-10-11T12:14:30.977Z,102655.00
2022-10-11T12:17:19.120Z,102652.34
2022-10-11T12:20:11.555Z,102645.16
2022-10-11T12:22:53.504Z,102658.38
2022-10-11T12:25:42.483Z,102649.47
2022-10-11T12:29:03.684Z,102632.59
2022-10-11T12:31:35.624Z,102630.72
2022-10-11T12:34:34.689Z,102635.13
2022-10-11T12:37:51.956Z,102641.28
2022-10-11T12:40:41.800Z,102629.56
2022-10-11T12:43:38.046Z,102635.69
2022-10-11T12:46:40.670Z,102629.09
2022-10-11T12:49:33.244Z,102626.97
2022-10-11T12:52:04.657Z,102623.34
2022-10-11T12:55:04.939Z,102628.63
2022-10-11T12:58:07.582Z,102634.34
2022-10-11T13:00:45.602Z,102628.69
2022-10-11T13:03:35.377Z,102619.66
2022-10-11T13:06:15.424Z,102619.41
2022-10-11T13:08:49.635Z,102624.31
2022-10-11T13:11:24.623Z,102625.09
2022-10-11T13:13:57.301Z,102621.25
2022-10-11T13:16:29.287Z,102620.66
2022-10-11T13:19:01.075Z,102620.91
2022-10-11T13:21:37.263Z,102621.00
2022-10-11T13:24:14.743Z,102623.56
2022-10-11T13:26:46.809Z,102623.66
2022-10-11T13:29:18.305Z,102621.13
2022-10-11T13:31:48.562Z,102627.44
2022-10-11T13:34:23.052Z,102619.50
2022-10-11T13:36:57.653Z,102618.59
2022-10-11T13:39:31.487Z,102613.28
2022-10-11T13:42:01.502Z,102623.03
2022-10-11T13:44:29.831Z,102623.94
2022-10-11T13:46:57.967Z,102624.84
2022-10-11T13:49:39.137Z,102620.47
2022-10-11T13:52:22.202Z,102624.03
2022-10-11T13:55:14.693Z,102627.63
2022-10-11T13:57:46.368Z,102630.31
2022-10-11T14:00:29.509Z,102631.19
2022-10-11T14:03:03.718Z,102617.06
2022-10-11T14:05:39.201Z,102622.38
2022-10-11T14:08:22.227Z,102619.72
2022-10-11T14:10:56.699Z,102628.59
2022-10-11T14:13:31.669Z,102624.19
2022-10-11T14:16:03.606Z,102628.59
2022-10-11T14:18:47.316Z,102626.81
2022-10-11T14:21:51.257Z,102618.88
2022-10-11T14:24:19.453Z,102625.03
2022-10-11T14:26:50.811Z,102617.97
2022-10-11T14:29:25.294Z,102632.09
2022-10-11T14:32:03.270Z,102633.00
2022-10-11T14:34:32.375Z,102634.72
2022-10-11T14:37:01.933Z,102635.59
2022-10-11T14:39:33.760Z,102630.28
2022-10-11T14:42:01.877Z,102633.81
2022-10-11T14:44:30.046Z,102630.25
2022-10-11T14:46:58.133Z,102634.69
2022-10-11T14:49:29.315Z,102632.03
2022-10-11T14:51:59.530Z,102627.59
2022-10-11T14:54:30.887Z,102624.09
2022-10-11T14:57:01.526Z,102624.09
2022-10-11T14:59:36.331Z,102636.47
2022-10-11T15:02:06.648Z,102631.16
2022-10-11T15:04:35.046Z,102631.19
2022-10-11T15:07:03.787Z,102628.59
2022-10-11T15:09:33.348Z,102622.41
2022-10-11T15:12:01.564Z,102622.41
2022-10-11T15:14:29.761Z,102619.75
2022-10-11T15:16:57.877Z,102623.28
2022-10-11T15:19:26.770Z,102614.41
2022-10-11T15:21:54.908Z,102619.72
2022-10-11T15:24:23.035Z,102625.91
2022-10-11T15:26:53.294Z,102620.63
2022-10-11T15:29:24.014Z,102617.97
2022-10-11T15:31:52.639Z,102620.59
2022-10-11T15:34:21.339Z,102618.84
2022-10-11T15:36:49.975Z,102626.78
2022-10-11T15:39:27.496Z,102620.59
2022-10-11T15:41:58.605Z,102622.41
2022-10-11T15:44:27.261Z,102620.63
2022-10-11T15:46:55.461Z,102619.75
2022-10-11T15:49:23.675Z,102622.38
2022-10-11T15:51:51.891Z,102617.09
2022-10-11T15:54:20.025Z,102613.53
2022-10-11T15:56:48.138Z,102613.56
2022-10-11T15:59:18.054Z,102614.44
2022-10-11T16:01:46.927Z,102614.44
2022-10-11T16:04:15.187Z,102611.75
2022-10-11T16:06:43.267Z,102617.03
2022-10-11T16:09:11.362Z,102606.41
2022-10-11T16:11:39.697Z,102625.78
2022-10-11T16:14:07.859Z,102619.56
2022-10-11T16:16:37.412Z,102623.06
2022-10-11T16:19:06.249Z,102625.63
2022-10-11T16:21:34.981Z,102619.38
2022-10-11T16:24:04.894Z,102614.88
2022-10-11T16:26:33.542Z,102620.06
2022-10-11T16:29:01.810Z,102618.25
2022-10-11T16:31:30.003Z,102615.44
2022-10-11T16:33:59.836Z,102614.44
2022-10-11T16:36:35.979Z,102620.44
2022-10-11T16:39:09.059Z,102611.41
2022-10-11T16:41:38.011Z,102607.66
2022-10-11T16:44:06.671Z,102618.84
2022-10-11T16:46:35.998Z,102625.72
2022-10-11T16:49:06.383Z,102633.38
2022-10-11T16:51:34.637Z,102627.06
2022-10-11T16:54:02.931Z,102636.56
2022-10-11T16:56:37.406Z,102635.53
2022-10-11T16:59:08.340Z,102629.19
2022-10-11T17:01:36.485Z,102630.84
2022-10-11T17:04:06.285Z,102624.59
2022-10-11T17:06:34.521Z,102627.16
2022-10-11T17:09:02.837Z,102630.63
2022-10-11T17:11:31.046Z,102633.19
2022-10-11T17:13:59.286Z,102639.25
2022-10-11T17:16:27.514Z,102634.78
2022-10-11T17:18:55.715Z,102635.56
2022-10-11T17:21:25.436Z,102633.72
2022-10-11T17:23:53.932Z,102633.56
2022-10-11T17:26:26.258Z,102629.06
2022-10-11T17:28:55.176Z,102635.91
2022-10-11T17:31:24.237Z,102638.41
2022-10-11T17:33:53.178Z,102640.00
2022-10-11T17:36:30.429Z,102646.03
2022-10-11T17:39:00.490Z,102648.53
2022-10-11T17:41:32.034Z,102638.78
2022-10-11T17:44:01.739Z,102640.50
2022-10-11T17:46:32.480Z,102633.47
2022-10-11T17:49:01.574Z,102642.28
2022-10-11T17:51:31.564Z,102641.41
2022-10-11T17:54:00.014Z,102644.06
2022-10-11T17:56:33.805Z,102643.13
2022-10-11T17:59:04.930Z,102637.72
2022-10-11T18:01:33.172Z,102644.56
2022-10-11T18:04:03.659Z,102641.66
2022-10-11T18:06:38.941Z,102639.56
2022-10-11T18:09:07.786Z,102639.31
2022-10-11T18:11:36.524Z,102639.03
2022-10-11T18:14:05.543Z,102642.31
2022-10-11T18:16:33.962Z,102642.09
2022-10-11T18:19:04.584Z,102637.56
2022-10-11T18:21:35.261Z,102630.38
2022-10-11T18:24:05.854Z,102634.59
2022-10-11T18:26:34.169Z,102633.63
2022-10-11T18:29:04.021Z,102635.19
2022-10-11T18:31:35.116Z,102629.72
2022-10-11T18:34:03.749Z,102632.16
2022-10-11T18:36:34.274Z,102630.22
2022-10-11T18:39:06.837Z,102634.41
2022-10-11T18:41:35.715Z,102626.28
2022-10-11T18:44:06.376Z,102629.56
2022-10-11T18:46:35.457Z,102626.66
2022-10-11T18:49:04.142Z,102643.97
2022-10-11T18:51:36.021Z,102635.91
2022-10-11T18:54:05.586Z,102646.31
2022-10-11T18:56:37.095Z,102637.53
2022-10-11T18:59:07.562Z,102632.28
2022-10-11T19:01:39.150Z,102634.91
2022-10-11T19:04:10.474Z,102640.91
2022-10-11T19:06:43.016Z,102632.91
2022-10-11T19:09:14.052Z,102630.94
2022-10-11T19:11:42.995Z,102630.72
2022-10-11T19:14:15.133Z,102627.00
2022-10-11T19:16:46.191Z,102632.06
2022-10-11T19:19:14.726Z,102631.84
2022-10-11T19:21:44.926Z,102639.50
2022-10-11T19:24:13.100Z,102635.81
2022-10-11T19:26:42.896Z,102635.63
2022-10-11T19:29:14.661Z,102634.66
2022-10-11T19:31:45.417Z,102636.19
2022-10-11T19:34:14.521Z,102629.88
2022-10-11T19:36:46.683Z,102629.59
2022-10-11T19:39:16.033Z,102630.38
2022-10-11T19:41:45.340Z,102638.09
2022-10-11T19:44:14.417Z,102637.09
2022-10-11T19:47:02.701Z,102631.66
2022-10-11T19:49:31.289Z,102628.00
2022-10-11T19:52:01.200Z,102630.53
2022-10-11T19:54:29.559Z,102625.97
2022-10-11T19:56:57.661Z,102624.03
2022-10-11T19:59:26.804Z,102625.72
2022-10-11T20:01:55.018Z,102623.06
2022-10-11T20:04:50.695Z,102619.50
2022-10-11T20:07:12.937Z,102616.66
2022-10-11T20:09:41.125Z,102611.34
2022-10-11T20:12:09.733Z,102623.44
2022-10-11T20:14:37.793Z,102607.50
2022-10-11T20:17:05.987Z,102617.09
2022-10-11T20:19:34.237Z,102609.97
2022-10-11T20:22:02.894Z,102615.13
2022-10-11T20:24:34.368Z,102611.53
2022-10-11T20:27:07.453Z,102608.84
2022-10-11T20:29:35.614Z,102613.13
2022-10-11T20:32:03.738Z,102615.75
2022-10-11T20:34:31.998Z,102617.41
2022-10-11T20:37:00.160Z,102623.44
2022-10-11T20:39:28.513Z,102618.13
2022-10-11T20:41:58.046Z,102615.38
2022-10-11T20:44:26.343Z,102624.84
2022-10-11T20:46:54.664Z,102626.47
2022-10-11T20:49:22.800Z,102624.63
2022-10-11T20:51:51.326Z,102625.34
2022-10-11T20:54:19.573Z,102626.19
2022-10-11T20:56:47.721Z,102620.84
2022-10-11T20:59:17.267Z,102626.06
2022-10-11T21:01:45.431Z,102630.34
2022-10-11T21:04:19.973Z,102620.75
2022-10-11T21:06:49.809Z,102626.75
2022-10-11T21:09:19.038Z,102620.44
2022-10-11T21:11:47.527Z,102628.97
2022-10-11T21:14:17.303Z,102627.13
2022-10-11T21:16:45.502Z,102626.25
2022-10-11T21:19:16.299Z,102631.41
2022-10-11T21:21:49.688Z,102633.03
2022-10-11T21:24:21.380Z,102630.31
2022-10-11T21:26:49.507Z,102632.75
2022-10-11T21:29:19.350Z,102632.69
2022-10-11T21:31:47.511Z,102627.34
2022-10-11T21:34:16.052Z,102635.91
2022-10-11T21:36:44.397Z,102633.19
2022-10-11T21:39:12.502Z,102620.81
2022-10-11T21:41:42.149Z,102625.94
2022-10-11T21:44:10.325Z,102625.81
2022-10-11T21:47:05.308Z,102630.97
2022-10-11T21:49:27.897Z,102633.38
2022-10-11T21:51:56.233Z,102634.19
2022-10-11T21:54:24.382Z,102630.59
2022-10-11T21:56:52.547Z,102621.72
2022-10-11T21:59:20.674Z,102628.69
2022-10-11T22:01:50.411Z,102621.66
2022-10-11T22:04:18.565Z,102625.97
2022-10-11T22:06:46.657Z,102625.00
2022-10-11T22:09:15.005Z,102617.09
2022-10-11T22:11:43.103Z,102627.44
2022-10-11T22:14:11.249Z,102620.22
2022-10-11T22:16:39.392Z,102617.50
2022-10-11T22:19:08.937Z,102612.16
2022-10-11T22:21:39.153Z,102616.38
2022-10-11T22:24:09.517Z,102617.16
2022-10-11T22:26:39.406Z,102616.13
2022-10-11T22:29:07.572Z,102615.13
2022-10-11T22:31:36.902Z,102614.19
2022-10-11T22:34:05.121Z,102618.44
2022-10-11T22:36:34.702Z,102618.31
2022-10-11T22:39:07.576Z,102614.72
2022-10-11T22:41:36.397Z,102631.19
2022-10-11T22:44:05.485Z,102624.06
2022-10-11T22:46:33.682Z,102618.75
2022-10-11T22:49:01.802Z,102623.00
2022-10-11T22:51:29.930Z,102617.66
2022-10-11T22:53:59.425Z,102617.66
2022-10-11T22:56:27.661Z,102610.66
2022-10-11T22:58:55.727Z,102615.88
2022-10-11T23:01:23.836Z,102615.06
2022-10-11T23:03:52.176Z,102608.03
2022-10-11T23:06:20.318Z,102615.75
2022-10-11T23:08:48.513Z,102612.97
2022-10-11T23:11:18.075Z,102613.56
2022-10-11T23:13:46.183Z,102612.50
2022-10-11T23:16:14.929Z,102616.69
2022-10-11T23:18:43.557Z,102612.19
2022-10-11T23:21:13.158Z,102616.38
2022-10-11T23:23:41.365Z,102611.03
2022-10-11T23:26:12.800Z,102617.06
2022-10-11T23:28:43.330Z,102616.97
2022-10-11T23:31:15.029Z,102608.97
2022-10-11T23:33:43.449Z,102614.06
2022-10-11T23:36:16.253Z,102612.31
2022-10-11T23:38:44.771Z,102612.16
2022-10-11T23:41:12.957Z,102607.78
2022-10-11T23:43:42.483Z,102603.38
2022-10-11T23:46:10.598Z,102612.03
2022-10-11T23:48:38.859Z,102606.81
2022-10-11T23:51:07.409Z,102606.06
2022-10-11T23:53:36.970Z,102610.59
2022-10-11T23:56:06.498Z,102609.13
2022-10-11T23:58:35.028Z,102615.50
